Time;durP1;ratioP1;P1;durP2;ratioP2;P2;SDS_P1;SDS_P2;PMS_P1;PMS_P2;Temp;Humidity;BMP_temperature;BMP_pressure;BME280_temperature;BME280_humidity;BME280_pressure;Samples;Min_cycle;Max_cycle;Signal;HPM_P1;HPM_P2
2024/01/24 00:00:52;;;;;;;5.43;2.30;;;;;;;10.58;93.92;100859.50;7393310;19;20010;-59
2024/01/24 00:03:23;;;;;;;5.70;2.35;;;;;;;10.55;93.95;100827.94;7399284;19;20498;-59
2024/01/24 00:05:54;;;;;;;5.80;2.28;;;;;;;10.60;94.12;100846.97;7394536;19;20030;-59
2024/01/24 00:08:25;;;;;;;4.45;2.28;;;;;;;10.65;93.91;100834.25;7395608;19;20018;-59
2024/01/24 00:10:56;;;;;;;6.85;2.38;;;;;;;10.66;94.10;100832.44;7394972;19;20021;-59
2024/01/24 00:13:26;;;;;;;5.90;2.30;;;;;;;10.78;94.25;100830.72;7395200;19;20545;-58
2024/01/24 00:15:57;;;;;;;5.00;2.40;;;;;;;10.80;93.96;100837.59;7395471;19;20108;-56
2024/01/24 00:18:29;;;;;;;6.40;2.53;;;;;;;10.81;94.11;100828.69;7396625;19;20494;-59
2024/01/24 00:21:00;;;;;;;4.18;2.28;;;;;;;10.82;94.40;100840.97;7394512;19;20387;-56
2024/01/24 00:23:37;;;;;;;3.90;2.47;;;;;;;10.80;94.85;100831.41;7396678;19;20025;-58
2024/01/24 00:26:08;;;;;;;4.88;2.58;;;;;;;10.82;95.18;100827.72;7393180;19;20533;-58
2024/01/24 00:28:41;;;;;;;5.80;2.70;;;;;;;10.90;94.82;100804.16;7396594;19;20029;-59
2024/01/24 00:31:12;;;;;;;5.05;2.58;;;;;;;10.89;94.89;100817.50;7391991;19;20278;-59
2024/01/24 00:33:43;;;;;;;5.82;2.63;;;;;;;10.91;94.54;100810.28;7394883;19;20781;-59
2024/01/24 00:36:14;;;;;;;6.15;2.63;;;;;;;10.91;94.97;100819.09;7395827;19;20414;-58
2024/01/24 00:38:45;;;;;;;5.75;2.97;;;;;;;10.96;95.44;100797.56;7396628;19;20024;-58
2024/01/24 00:41:15;;;;;;;5.93;2.60;;;;;;;11.05;94.76;100806.63;7391652;19;20029;-59
2024/01/24 00:43:46;;;;;;;9.02;3.45;;;;;;;11.05;95.38;100803.97;7395939;19;20421;-59
2024/01/24 00:46:17;;;;;;;5.97;2.78;;;;;;;10.97;96.00;100799.25;7392571;19;20539;-60
2024/01/24 00:48:47;;;;;;;5.90;2.83;;;;;;;10.97;96.62;100810.69;7395209;19;20014;-59
2024/01/24 00:51:18;;;;;;;6.45;2.95;;;;;;;10.97;97.19;100805.38;7391252;19;20528;-60
2024/01/24 00:53:53;;;;;;;6.35;2.80;;;;;;;11.00;96.91;100796.38;7396005;19;20021;-60
2024/01/24 00:56:27;;;;;;;6.20;2.88;;;;;;;10.97;97.83;100788.63;7394397;19;20021;-59
2024/01/24 00:58:57;;;;;;;4.82;2.67;;;;;;;10.99;97.57;100810.59;7394198;19;20048;-59
2024/01/24 01:01:31;;;;;;;;;;;;;;;10.95;98.23;100787.91;7391363;19;20019;-58
2024/01/24 01:04:01;;;;;;;5.70;2.90;;;;;;;10.98;98.65;100785.88;7394616;19;19931;-58
2024/01/24 01:06:38;;;;;;;4.55;2.40;;;;;;;11.09;97.58;100790.38;7392414;19;20023;-59
2024/01/24 01:09:10;;;;;;;4.95;2.40;;;;;;;11.11;97.67;100783.16;7395581;19;20054;-59
2024/01/24 01:11:42;;;;;;;4.55;2.38;;;;;;;11.14;97.53;100788.22;7391161;19;20028;-55
2024/01/24 01:14:13;;;;;;;5.85;2.33;;;;;;;11.18;97.72;100788.81;7395867;19;20036;-59
2024/01/24 01:16:43;;;;;;;4.30;2.10;;;;;;;11.20;97.76;100781.59;7395760;19;20014;-59
2024/01/24 01:19:14;;;;;;;4.95;2.30;;;;;;;11.24;97.65;100772.47;7395184;19;20019;-54
2024/01/24 01:21:45;;;;;;;5.63;2.45;;;;;;;11.24;97.80;100767.16;7392862;19;20046;-58
2024/01/24 01:24:19;;;;;;;6.15;2.50;;;;;;;11.25;97.77;100771.50;7395097;19;20023;-59
2024/01/24 01:26:50;;;;;;;6.88;2.80;;;;;;;11.33;97.83;100758.53;7391519;19;20091;-58
2024/01/24 01:29:20;;;;;;;5.05;2.47;;;;;;;11.37;97.53;100748.50;7392753;19;20074;-59
2024/01/24 01:31:51;;;;;;;5.68;2.42;;;;;;;11.40;97.80;100750.91;7391598;19;20035;-59
2024/01/24 01:34:22;;;;;;;6.03;2.78;;;;;;;11.44;98.21;100753.19;7390293;19;20129;-58
2024/01/24 01:36:53;;;;;;;5.43;2.88;;;;;;;11.41;97.99;100763.22;7392244;19;20026;-58
2024/01/24 01:39:24;;;;;;;6.55;2.60;;;;;;;11.40;98.16;100754.41;7394750;19;20018;-58
2024/01/24 01:41:54;;;;;;;5.50;2.67;;;;;;;11.41;98.71;100752.63;7392071;19;20015;-59
2024/01/24 01:44:25;;;;;;;4.35;2.28;;;;;;;11.46;98.57;100740.69;7396054;19;20085;-57
2024/01/24 01:46:55;;;;;;;4.65;2.30;;;;;;;11.50;98.67;100728.03;7391283;19;20034;-59
2024/01/24 01:49:26;;;;;;;4.28;2.22;;;;;;;11.54;98.38;100723.34;7393620;19;20062;-59
2024/01/24 01:51:56;;;;;;;5.70;2.30;;;;;;;11.60;98.31;100730.78;7391658;19;20018;-58
2024/01/24 01:54:29;;;;;;;4.80;2.38;;;;;;;11.61;98.02;100736.00;7392452;19;20023;-58
2024/01/24 01:57:01;;;;;;;3.67;2.33;;;;;;;11.60;98.43;100715.75;7393660;19;20479;-59
2024/01/24 01:59:40;;;;;;;6.57;2.28;;;;;;;11.61;98.74;100706.81;7392206;19;20014;-59
2024/01/24 02:02:11;;;;;;;4.47;2.25;;;;;;;11.59;98.78;100708.72;7391631;19;20482;-59
2024/01/24 02:04:42;;;;;;;4.55;2.20;;;;;;;11.60;99.00;100709.56;7392359;19;20026;-59
2024/01/24 02:07:12;;;;;;;3.60;2.10;;;;;;;11.60;98.80;100689.22;7387339;19;20026;-59
2024/01/24 02:09:43;;;;;;;4.25;1.88;;;;;;;11.63;99.10;100698.72;7391129;19;20057;-59
2024/01/24 02:12:13;;;;;;;2.92;1.67;;;;;;;11.68;98.72;100686.81;7391808;19;20097;-56
2024/01/24 02:14:44;;;;;;;1.90;1.63;;;;;;;11.76;98.04;100695.97;7393378;19;20014;-55
2024/01/24 02:17:15;;;;;;;5.57;1.80;;;;;;;11.73;98.16;100689.09;7391631;19;20018;-55
2024/01/24 02:19:45;;;;;;;2.95;1.70;;;;;;;11.79;98.19;100679.78;7392211;19;20103;-59
2024/01/24 02:22:17;;;;;;;3.47;1.60;;;;;;;11.82;97.61;100671.59;7390939;19;20026;-55
2024/01/24 02:24:48;;;;;;;3.08;1.35;;;;;;;11.80;97.79;100669.06;7391437;19;20027;-55
2024/01/24 02:27:18;;;;;;;1.77;1.20;;;;;;;11.81;97.92;100664.59;7389523;19;20498;-52
2024/01/24 02:29:48;;;;;;;3.42;1.20;;;;;;;11.83;97.74;100674.16;7390330;19;20487;-58
2024/01/24 02:32:20;;;;;;;2.85;1.13;;;;;;;11.86;98.08;100659.78;7390847;19;20026;-57
2024/01/24 02:34:50;;;;;;;3.47;1.20;;;;;;;11.92;97.47;100676.06;7392866;19;20018;-57
2024/01/24 02:37:21;;;;;;;2.22;1.20;;;;;;;11.92;97.02;100672.56;7392386;19;20010;-55
2024/01/24 02:39:51;;;;;;;1.88;1.20;;;;;;;11.93;97.28;100669.78;7390277;19;20025;-59
2024/01/24 02:42:22;;;;;;;1.77;1.10;;;;;;;11.97;96.61;100675.69;7390472;19;20011;-58
2024/01/24 02:44:52;;;;;;;2.35;0.95;;;;;;;12.09;96.02;100668.53;7392692;19;20078;-57
2024/01/24 02:47:23;;;;;;;1.27;0.85;;;;;;;12.10;95.91;100670.25;7389380;19;20018;-61
2024/01/24 02:49:53;;;;;;;1.95;1.25;;;;;;;12.09;95.62;100679.16;7390152;19;20419;-61
2024/01/24 02:52:23;;;;;;;1.65;0.70;;;;;;;12.14;95.36;100724.78;7390638;19;20393;-61
2024/01/24 02:54:54;;;;;;;2.25;0.60;;;;;;;12.27;94.24;100693.59;7390747;19;20039;-61
2024/01/24 02:57:24;;;;;;;1.08;0.30;;;;;;;12.22;93.76;100674.53;7392948;19;20369;-60
2024/01/24 02:59:55;;;;;;;0.45;0.40;;;;;;;12.27;93.36;100640.47;7392473;19;20029;-58
2024/01/24 03:02:26;;;;;;;1.65;0.35;;;;;;;12.21;92.97;100641.00;7392949;19;20025;-59
2024/01/24 03:04:56;;;;;;;1.02;0.50;;;;;;;12.18;92.81;100650.06;7390652;19;20363;-59
2024/01/24 03:07:27;;;;;;;0.82;0.30;;;;;;;12.16;92.92;100657.28;7391543;19;20018;-57
2024/01/24 03:09:58;;;;;;;0.47;0.30;;;;;;;12.11;93.54;100671.94;7391416;19;20035;-57
2024/01/24 03:12:40;;;;;;;0.80;0.38;;;;;;;12.09;93.31;100657.91;7393435;19;20045;-58
2024/01/24 03:15:11;;;;;;;1.80;0.28;;;;;;;12.10;92.79;100680.88;7391973;19;20033;-60
2024/01/24 03:17:43;;;;;;;2.95;0.40;;;;;;;12.09;92.74;100660.56;7392837;19;20036;-60
2024/01/24 03:20:14;;;;;;;3.03;0.40;;;;;;;12.03;92.56;100659.28;7395555;19;20027;-61
2024/01/24 03:22:46;;;;;;;3.23;0.43;;;;;;;12.15;91.23;100673.34;7400070;19;20022;-58
2024/01/24 03:25:18;;;;;;;1.60;0.30;;;;;;;12.10;90.74;100641.03;7399547;19;20086;-56
2024/01/24 03:27:48;;;;;;;0.93;0.20;;;;;;;12.12;89.64;100649.72;7397036;19;20408;-58
2024/01/24 03:30:19;;;;;;;0.52;0.40;;;;;;;12.03;89.79;100643.34;7395780;19;20021;-55
2024/01/24 03:32:49;;;;;;;1.67;0.30;;;;;;;12.01;89.50;100660.34;7399172;19;20019;-57
2024/01/24 03:35:19;;;;;;;1.13;0.30;;;;;;;12.01;89.01;100624.03;7397638;19;20400;-57
2024/01/24 03:37:49;;;;;;;2.90;0.35;;;;;;;12.06;88.12;100629.84;7397117;19;20416;-59
2024/01/24 03:40:19;;;;;;;3.03;0.47;;;;;;;12.00;86.99;100650.72;7397596;19;20487;-60
2024/01/24 03:42:48;;;;;;;3.85;0.50;;;;;;;12.01;86.53;100637.31;7400171;19;20046;-59
2024/01/24 03:45:19;;;;;;;2.13;0.60;;;;;;;11.98;86.61;100631.41;7400030;19;20022;-58
2024/01/24 03:47:49;;;;;;;2.78;0.65;;;;;;;11.95;86.06;100636.00;7394254;19;20023;-59
2024/01/24 03:50:20;;;;;;;4.60;0.80;;;;;;;11.87;85.98;100633.16;7396620;19;20015;-59
2024/01/24 03:52:49;;;;;;;6.05;1.13;;;;;;;11.89;84.38;100649.75;7399920;19;20030;-60
2024/01/24 03:55:20;;;;;;;6.20;0.90;;;;;;;12.05;82.98;100656.47;7399787;19;20015;-58
2024/01/24 03:57:48;;;;;;;5.00;0.93;;;;;;;12.16;81.20;100646.66;7397062;19;20019;-57
2024/01/24 04:00:19;;;;;;;7.03;1.00;;;;;;;12.11;79.07;100671.94;7397387;19;20015;-59
2024/01/24 04:02:49;;;;;;;8.38;1.30;;;;;;;12.00;80.35;100662.16;7398031;19;20043;-59
2024/01/24 04:05:19;;;;;;;6.03;0.95;;;;;;;11.96;79.80;100655.44;7396343;19;20043;-60
2024/01/24 04:07:48;;;;;;;7.53;1.58;;;;;;;11.93;79.31;100680.41;7396134;19;20402;-60
2024/01/24 04:10:19;;;;;;;8.73;1.30;;;;;;;11.95;79.12;100680.28;7395603;19;20107;-59
2024/01/24 04:12:48;;;;;;;9.57;1.67;;;;;;;12.09;76.90;100679.16;7397687;19;20018;-59
2024/01/24 04:15:19;;;;;;;8.55;1.70;;;;;;;11.99;77.08;100691.50;7397566;19;20042;-59
2024/01/24 04:17:48;;;;;;;10.60;1.67;;;;;;;11.86;77.94;100673.06;7398582;19;20031;-58
2024/01/24 04:20:18;;;;;;;12.32;1.77;;;;;;;11.81;77.96;100688.47;7397837;19;20019;-57
2024/01/24 04:22:48;;;;;;;8.40;1.48;;;;;;;11.75;78.35;100697.75;7399458;19;20046;-58
2024/01/24 04:25:18;;;;;;;8.75;1.52;;;;;;;11.79;77.63;100704.53;7398079;19;20018;-58
2024/01/24 04:27:48;;;;;;;12.18;1.77;;;;;;;11.80;77.11;100674.38;7397454;19;20363;-60
2024/01/24 04:30:19;;;;;;;11.70;1.63;;;;;;;11.90;76.39;100701.88;7394609;19;20363;-59
2024/01/24 04:32:48;;;;;;;11.00;1.75;;;;;;;11.97;76.03;100707.53;7398048;19;20093;-60
2024/01/24 04:35:20;;;;;;;12.55;2.03;;;;;;;11.92;76.22;100739.75;7397986;19;20023;-59
2024/01/24 04:37:49;;;;;;;12.63;1.90;;;;;;;11.88;76.81;100716.25;7397306;19;20022;-58
2024/01/24 04:40:19;;;;;;;11.18;1.98;;;;;;;11.88;76.81;100722.38;7395209;19;20363;-57
2024/01/24 04:42:49;;;;;;;12.90;2.85;;;;;;;11.90;76.26;100733.72;7397030;19;20383;-58
2024/01/24 04:45:19;;;;;;;12.55;2.03;;;;;;;11.76;76.42;100739.25;7397193;19;20361;-57
2024/01/24 04:47:49;;;;;;;14.27;2.55;;;;;;;11.74;76.99;100719.94;7395039;19;20420;-59
2024/01/24 04:50:19;;;;;;;18.13;2.97;;;;;;;11.69;77.13;100714.16;7395050;19;20029;-59
2024/01/24 04:52:49;;;;;;;15.25;2.88;;;;;;;11.75;76.66;100720.78;7395483;19;20011;-59
2024/01/24 04:55:19;;;;;;;14.73;2.75;;;;;;;11.74;76.47;100724.41;7396018;19;20540;-59
2024/01/24 04:57:47;;;;;;;13.05;2.65;;;;;;;11.79;76.38;100719.56;7397401;19;20019;-59
2024/01/24 05:00:18;;;;;;;15.85;2.33;;;;;;;11.90;76.00;100733.72;7394231;19;20030;-58
2024/01/24 05:02:48;;;;;;;13.73;2.95;;;;;;;11.80;76.05;100751.31;7397535;19;20463;-59
2024/01/24 05:05:19;;;;;;;15.10;3.30;;;;;;;11.75;75.92;100732.25;7397349;19;20022;-60
2024/01/24 05:07:48;;;;;;;13.80;2.33;;;;;;;11.80;76.25;100723.94;7396847;19;20085;-58
2024/01/24 05:10:19;;;;;;;11.23;2.25;;;;;;;11.77;75.76;100732.97;7395785;19;20018;-60
2024/01/24 05:12:48;;;;;;;17.27;2.60;;;;;;;11.82;75.69;100749.38;7395429;19;20448;-58
2024/01/24 05:15:18;;;;;;;15.32;3.20;;;;;;;11.86;75.68;100753.50;7394160;19;20078;-56
2024/01/24 05:17:48;;;;;;;18.15;3.42;;;;;;;11.85;76.05;100772.19;7394439;19;20022;-57
2024/01/24 05:20:20;;;;;;;18.85;3.22;;;;;;;11.81;77.00;100762.75;7394313;19;20026;-56
2024/01/24 05:22:48;;;;;;;14.85;3.33;;;;;;;11.69;77.81;100756.63;7396137;19;20021;-56
2024/01/24 05:25:18;;;;;;;11.55;2.50;;;;;;;11.69;77.71;100768.06;7394693;19;20036;-58
2024/01/24 05:27:46;;;;;;;16.02;3.00;;;;;;;11.66;78.79;100788.69;7394577;19;20377;-59
2024/01/24 05:30:17;;;;;;;14.68;2.47;;;;;;;11.63;79.02;100763.22;7393278;19;20110;-60
2024/01/24 05:33:03;;;;;;;14.32;2.90;;;;;;;11.57;80.04;100798.19;7395164;19;20030;-56
2024/01/24 05:35:34;;;;;;;14.38;2.67;;;;;;;11.55;80.03;100789.50;7393597;19;20344;-59
2024/01/24 05:38:04;;;;;;;20.02;3.60;;;;;;;11.46;81.18;100819.41;7395211;19;20047;-60
2024/01/24 05:40:35;;;;;;;17.95;3.15;;;;;;;11.34;82.35;100836.25;7392796;19;20022;-59
2024/01/24 05:43:04;;;;;;;17.33;3.00;;;;;;;11.20;81.94;100819.56;7393848;19;20021;-59
2024/01/24 05:45:35;;;;;;;18.40;4.18;;;;;;;11.30;81.88;100832.13;7394505;19;20489;-61
2024/01/24 05:48:04;;;;;;;20.77;3.20;;;;;;;11.21;82.29;100817.75;7393393;19;20022;-61
2024/01/24 05:50:37;;;;;;;17.95;3.28;;;;;;;11.14;82.24;100816.50;7392736;19;20545;-61
2024/01/24 05:53:06;;;;;;;19.23;3.53;;;;;;;11.10;81.11;100838.91;7392655;19;20026;-61
2024/01/24 05:55:37;;;;;;;15.48;3.00;;;;;;;11.01;80.89;100821.91;7392365;19;20476;-61
2024/01/24 05:58:12;;;;;;;13.80;2.53;;;;;;;11.04;79.87;100834.09;7393850;19;20362;-61
2024/01/24 06:00:44;;;;;;;16.05;2.90;;;;;;;10.95;79.44;100804.66;7390597;19;20110;-61
2024/01/24 06:03:15;;;;;;;16.75;2.92;;;;;;;11.06;79.15;100833.00;7393925;19;20039;-62
2024/01/24 06:05:46;;;;;;;16.40;2.78;;;;;;;11.01;78.83;100834.31;7392119;19;20022;-62
2024/01/24 06:08:14;;;;;;;14.90;2.75;;;;;;;11.02;78.64;100841.28;7390981;19;20018;-62
2024/01/24 06:10:44;;;;;;;14.95;2.67;;;;;;;10.97;78.78;100839.81;7391558;19;20021;-61
2024/01/24 06:13:12;;;;;;;14.93;3.17;;;;;;;10.97;78.85;100833.69;7391810;19;20018;-61
2024/01/24 06:15:42;;;;;;;15.35;3.05;;;;;;;11.05;79.03;100859.63;7392152;19;20043;-61
2024/01/24 06:18:12;;;;;;;14.95;3.40;;;;;;;11.00;79.30;100859.13;7393271;19;20021;-61
2024/01/24 06:20:43;;;;;;;17.60;3.20;;;;;;;10.98;79.50;100862.72;7389738;19;20023;-61
2024/01/24 06:23:13;;;;;;;14.00;3.08;;;;;;;10.90;80.00;100869.53;7393125;19;20018;-60
2024/01/24 06:25:43;;;;;;;20.17;3.67;;;;;;;10.88;79.67;100861.72;7392699;19;20015;-60
2024/01/24 06:28:13;;;;;;;15.80;3.10;;;;;;;10.90;79.29;100870.38;7391830;19;20026;-59
2024/01/24 06:30:43;;;;;;;16.27;3.80;;;;;;;10.95;79.50;100878.84;7390891;19;20043;-60
2024/01/24 06:33:15;;;;;;;17.70;3.50;;;;;;;10.97;78.76;100871.63;7391309;19;20030;-61
2024/01/24 06:35:45;;;;;;;18.73;3.85;;;;;;;11.00;78.96;100883.81;7391670;19;20029;-60
2024/01/24 06:38:15;;;;;;;23.27;4.22;;;;;;;11.08;78.64;100889.38;7392443;19;20014;-56
2024/01/24 06:40:45;;;;;;;19.70;4.13;;;;;;;11.01;78.01;100882.00;7391175;19;20043;-61
2024/01/24 06:43:18;;;;;;;17.65;4.30;;;;;;;11.03;78.22;100886.25;7392688;19;20022;-61
2024/01/24 06:45:49;;;;;;;17.35;3.88;;;;;;;11.07;77.23;100894.81;7391012;19;20023;-58
2024/01/24 06:48:19;;;;;;;28.42;4.28;;;;;;;11.19;76.20;100889.44;7390029;19;20017;-60
2024/01/24 06:50:49;;;;;;;26.02;4.30;;;;;;;11.14;76.20;100890.72;7391032;19;20029;-56
2024/01/24 06:53:20;;;;;;;19.27;4.50;;;;;;;11.10;76.51;100892.75;7391371;19;20019;-57
2024/01/24 06:55:50;;;;;;;20.83;3.92;;;;;;;11.15;76.26;100880.03;7392065;19;20047;-57
2024/01/24 06:58:20;;;;;;;24.23;4.60;;;;;;;11.15;75.44;100885.34;7391502;19;20051;-58
2024/01/24 07:00:50;;;;;;;21.65;4.07;;;;;;;11.20;75.30;100890.28;7390060;19;20038;-59
2024/01/24 07:03:20;;;;;;;23.10;4.85;;;;;;;11.17;73.97;100883.41;7391538;19;20038;-58
2024/01/24 07:05:52;;;;;;;25.90;4.88;;;;;;;11.14;74.28;100888.94;7391633;19;20046;-58
2024/01/24 07:08:23;;;;;;;24.30;4.78;;;;;;;11.26;73.40;100897.78;7390708;19;20025;-60
2024/01/24 07:10:54;;;;;;;26.15;5.28;;;;;;;11.20;71.93;100920.28;7388638;19;20095;-60
2024/01/24 07:13:24;;;;;;;25.17;4.80;;;;;;;11.23;72.36;100925.38;7391334;19;20367;-59
2024/01/24 07:15:55;;;;;;;21.55;4.47;;;;;;;11.19;71.70;100933.66;7391568;19;20027;-59
2024/01/24 07:18:26;;;;;;;23.88;5.43;;;;;;;11.18;70.67;100926.66;7391009;19;20011;-60
2024/01/24 07:20:56;;;;;;;25.13;5.25;;;;;;;11.25;70.57;100938.50;7388501;19;20018;-59
2024/01/24 07:23:27;;;;;;;18.65;4.38;;;;;;;11.19;69.33;100933.66;7391130;19;20344;-60
2024/01/24 07:25:57;;;;;;;23.88;4.53;;;;;;;11.20;69.61;100936.19;7390773;19;20040;-60
2024/01/24 07:28:29;;;;;;;22.20;4.43;;;;;;;11.26;69.36;100960.59;7389830;19;20453;-60
2024/01/24 07:30:59;;;;;;;24.67;4.93;;;;;;;11.30;68.71;100943.50;7389240;19;20022;-60
2024/01/24 07:33:38;;;;;;;26.45;5.15;;;;;;;11.21;68.31;100939.69;7391233;19;20375;-60
2024/01/24 07:36:09;;;;;;;21.30;4.55;;;;;;;11.15;68.92;100927.75;7390562;19;20093;-60
2024/01/24 07:38:40;;;;;;;24.48;5.25;;;;;;;11.19;68.66;100946.91;7389533;19;20035;-60
2024/01/24 07:41:10;;;;;;;21.85;4.55;;;;;;;11.21;68.60;100939.69;7388612;19;20434;-60
2024/01/24 07:43:43;;;;;;;26.95;5.32;;;;;;;11.25;68.22;100937.66;7391210;19;20018;-60
2024/01/24 07:46:13;;;;;;;22.23;5.07;;;;;;;11.26;67.69;100947.31;7391100;19;20078;-58
2024/01/24 07:48:44;;;;;;;24.40;5.32;;;;;;;11.27;67.30;100980.81;7387755;19;20086;-59
2024/01/24 07:51:15;;;;;;;18.63;4.32;;;;;;;11.25;67.38;100948.25;7388257;19;20018;-57
2024/01/24 07:53:47;;;;;;;26.30;4.72;;;;;;;11.27;67.62;100976.34;7390548;19;20035;-59
2024/01/24 07:56:18;;;;;;;19.70;4.35;;;;;;;11.27;67.18;100952.50;7389043;19;20014;-59
2024/01/24 07:58:56;;;;;;;28.02;4.97;;;;;;;11.25;67.25;100954.41;7390532;19;20088;-58
2024/01/24 08:01:27;;;;;;;22.95;4.95;;;;;;;11.19;66.90;100955.72;7387599;19;20026;-57
2024/01/24 08:04:00;;;;;;;25.58;5.20;;;;;;;11.19;65.95;100966.31;7389943;19;20408;-58
2024/01/24 08:06:38;;;;;;;27.98;5.50;;;;;;;11.24;66.41;100965.97;7397454;19;20408;-59
2024/01/24 08:09:09;;;;;;;25.80;4.72;;;;;;;11.23;65.96;100956.34;7395369;19;20123;-59
2024/01/24 08:11:43;;;;;;;21.33;4.78;;;;;;;11.30;65.41;100993.84;7394441;19;20031;-58
2024/01/24 08:14:14;;;;;;;26.98;5.43;;;;;;;11.27;65.66;100989.63;7397604;19;20015;-57
2024/01/24 08:17:05;;;;;;;23.58;4.90;;;;;;;11.29;64.53;100977.06;7395463;19;20085;-61
2024/01/24 08:19:38;;;;;;;23.15;5.00;;;;;;;11.29;65.35;100990.34;7395243;19;20121;-60
2024/01/24 08:22:09;;;;;;;21.27;4.32;;;;;;;11.31;65.31;100984.94;7396707;19;20018;-60
2024/01/24 08:24:40;;;;;;;24.55;4.60;;;;;;;11.27;65.24;100996.72;7397187;19;20019;-59
2024/01/24 08:27:10;;;;;;;23.70;4.88;;;;;;;11.20;65.01;100994.50;7396855;19;20018;-60
2024/01/24 08:29:41;;;;;;;22.48;4.35;;;;;;;11.17;65.27;101005.31;7393927;19;20042;-59
2024/01/24 08:32:11;;;;;;;23.48;4.93;;;;;;;11.22;64.95;101007.66;7396649;19;20015;-60
2024/01/24 08:34:43;;;;;;;21.88;4.80;;;;;;;11.19;65.10;101010.53;7397207;19;20030;-59
2024/01/24 08:37:14;;;;;;;23.52;4.78;;;;;;;11.18;64.39;101022.06;7396442;19;20022;-60
2024/01/24 08:39:44;;;;;;;24.05;5.25;;;;;;;11.19;64.26;101019.34;7395749;19;20028;-58
2024/01/24 08:42:15;;;;;;;23.45;4.70;;;;;;;11.13;64.92;101025.06;7396644;19;20007;-59
2024/01/24 08:44:45;;;;;;;25.50;5.13;;;;;;;11.15;64.79;101028.47;7396980;19;20014;-59
2024/01/24 08:47:16;;;;;;;26.88;5.45;;;;;;;11.23;64.52;101019.97;7396651;19;20035;-57
2024/01/24 08:49:46;;;;;;;26.92;4.97;;;;;;;11.18;65.03;101056.53;7392839;19;20031;-58
2024/01/24 08:52:16;;;;;;;22.50;4.55;;;;;;;11.22;65.21;101021.78;7396058;19;20025;-60
2024/01/24 08:54:47;;;;;;;25.73;5.30;;;;;;;11.20;65.08;101059.94;7397272;19;20018;-59
2024/01/24 08:57:18;;;;;;;23.58;4.72;;;;;;;11.28;65.10;101038.19;7396302;19;20042;-60
2024/01/24 08:59:49;;;;;;;26.02;5.32;;;;;;;11.29;65.55;101053.13;7394884;19;20503;-60
2024/01/24 09:02:20;;;;;;;20.40;4.72;;;;;;;11.33;65.38;101054.59;7394047;19;20022;-59
2024/01/24 09:04:52;;;;;;;22.58;4.68;;;;;;;11.30;65.13;101055.69;7395782;19;20022;-59
2024/01/24 09:07:23;;;;;;;24.05;5.05;;;;;;;11.28;65.35;101054.09;7395699;19;20025;-60
2024/01/24 09:09:54;;;;;;;23.05;4.97;;;;;;;11.30;65.10;101074.25;7392834;19;20489;-60
2024/01/24 09:12:30;;;;;;;22.20;4.70;;;;;;;11.36;64.87;101078.25;7395234;19;20055;-56
2024/01/24 09:15:01;;;;;;;22.27;4.72;;;;;;;11.31;64.55;101086.53;7395140;19;20036;-56
2024/01/24 09:17:41;;;;;;;19.70;4.40;;;;;;;11.32;65.18;101106.78;7394420;19;20015;-57
2024/01/24 09:20:12;;;;;;;23.23;4.95;;;;;;;11.34;64.58;101134.03;7393531;19;20021;-59
2024/01/24 09:22:45;;;;;;;26.55;4.60;;;;;;;11.36;64.79;101096.81;7395205;19;20010;-61
2024/01/24 09:25:16;;;;;;;22.73;4.82;;;;;;;11.34;64.27;101090.78;7394946;19;20018;-62
2024/01/24 09:27:45;;;;;;;21.90;4.55;;;;;;;11.33;64.30;101081.97;7392890;19;20474;-59
2024/01/24 09:30:16;;;;;;;22.48;4.45;;;;;;;11.42;64.09;101109.63;7389796;19;20479;-60
2024/01/24 09:32:46;;;;;;;20.48;3.92;;;;;;;11.41;64.02;101092.03;7393719;19;20482;-59
2024/01/24 09:35:17;;;;;;;27.35;5.15;;;;;;;11.44;63.76;101110.34;7394439;19;20038;-60
2024/01/24 09:37:47;;;;;;;22.35;4.50;;;;;;;11.38;64.48;101092.25;7394745;19;20085;-59
2024/01/24 09:40:18;;;;;;;22.25;4.95;;;;;;;11.43;64.15;101106.84;7392462;19;20366;-59
2024/01/24 09:42:47;;;;;;;22.48;4.28;;;;;;;11.49;63.99;101102.09;7394726;19;20042;-61
2024/01/24 09:45:17;;;;;;;20.17;4.43;;;;;;;11.47;63.99;101112.78;7394505;19;20015;-60
2024/01/24 09:47:47;;;;;;;22.48;5.28;;;;;;;11.42;64.11;101107.81;7394264;19;20018;-61
2024/01/24 09:50:18;;;;;;;21.20;6.38;;;;;;;11.37;63.96;101132.97;7389986;19;20018;-58
2024/01/24 09:52:50;;;;;;;22.85;4.53;;;;;;;11.31;64.66;101110.41;7393905;19;20019;-59
2024/01/24 09:55:23;;;;;;;22.10;5.00;;;;;;;11.38;64.34;101116.97;7394194;19;20078;-59
2024/01/24 09:57:56;;;;;;;21.67;4.57;;;;;;;11.52;63.52;101123.06;7393783;19;20043;-61
2024/01/24 10:00:26;;;;;;;22.63;4.78;;;;;;;11.52;63.10;101131.03;7390562;19;20043;-60
2024/01/24 10:02:58;;;;;;;25.08;5.07;;;;;;;11.40;63.25;101152.16;7391961;19;20014;-58
2024/01/24 10:05:35;;;;;;;23.92;5.47;;;;;;;11.46;63.36;101133.16;7393555;19;20494;-60
2024/01/24 10:08:06;;;;;;;24.20;4.75;;;;;;;11.41;63.27;101139.78;7393745;19;20011;-61
2024/01/24 10:10:37;;;;;;;24.48;4.70;;;;;;;11.43;62.58;101169.66;7392118;19;20078;-60
2024/01/24 10:13:08;;;;;;;23.85;5.68;;;;;;;11.34;63.18;101155.25;7393659;19;20502;-61
2024/01/24 10:15:39;;;;;;;22.52;4.97;;;;;;;11.39;63.00;101174.34;7393383;19;20408;-61
2024/01/24 10:18:09;;;;;;;24.25;4.78;;;;;;;11.42;62.84;101160.88;7393096;19;20022;-60
2024/01/24 10:20:42;;;;;;;21.50;4.47;;;;;;;11.34;63.61;101165.88;7391163;19;20381;-60
2024/01/24 10:23:21;;;;;;;27.38;5.28;;;;;;;11.32;63.49;101161.63;7392670;19;20014;-60
2024/01/24 10:25:50;;;;;;;20.08;4.72;;;;;;;11.47;63.44;101153.41;7393144;19;20032;-60
2024/01/24 10:28:19;;;;;;;26.20;5.25;;;;;;;11.38;62.84;101156.72;7388904;19;20571;-59
2024/01/24 10:30:49;;;;;;;22.17;4.95;;;;;;;11.36;63.25;101157.78;7391586;19;20035;-60
2024/01/24 10:33:18;;;;;;;26.45;5.43;;;;;;;11.33;63.66;101152.69;7392625;19;20046;-60
2024/01/24 10:35:48;;;;;;;24.90;4.38;;;;;;;11.36;63.77;101158.63;7392883;19;20031;-58
2024/01/24 10:38:23;;;;;;;22.25;5.05;;;;;;;11.39;63.54;101168.19;7392919;19;20019;-56
2024/01/24 10:40:57;;;;;;;28.10;4.80;;;;;;;11.27;63.30;101174.34;7391912;19;20042;-55
2024/01/24 10:43:26;;;;;;;23.33;5.10;;;;;;;11.28;63.25;101171.59;7393641;19;20025;-57
2024/01/24 10:45:56;;;;;;;20.20;4.30;;;;;;;11.29;63.41;101188.34;7393172;19;20014;-58
2024/01/24 10:48:26;;;;;;;21.35;4.75;;;;;;;11.23;63.90;101176.38;7392606;19;20018;-58
2024/01/24 10:50:59;;;;;;;23.60;4.50;;;;;;;11.32;63.19;101178.38;7390867;19;20025;-59
2024/01/24 10:53:30;;;;;;;24.70;4.93;;;;;;;11.29;63.22;101181.22;7393386;19;20026;-61
2024/01/24 10:56:01;;;;;;;18.80;4.30;;;;;;;11.25;63.13;101193.00;7391046;19;20050;-61
2024/01/24 10:58:40;;;;;;;26.15;5.03;;;;;;;11.27;63.16;101195.56;7391962;19;20507;-59
2024/01/24 11:01:10;;;;;;;20.58;4.45;;;;;;;11.27;63.31;101169.06;7390241;19;20022;-60
2024/01/24 11:03:44;;;;;;;20.85;5.28;;;;;;;11.28;63.28;101190.13;7391379;19;20035;-60
2024/01/24 11:06:16;;;;;;;22.67;5.25;;;;;;;11.29;63.23;101183.88;7396072;19;20492;-60
2024/01/24 11:09:23;;;;;;;23.55;5.03;;;;;;;11.29;62.97;101210.38;7389880;19;20039;-61
2024/01/24 11:11:58;;;;;;;24.63;4.80;;;;;;;11.25;63.08;101216.03;7390499;19;20035;-59
2024/01/24 11:14:34;;;;;;;27.60;5.63;;;;;;;11.20;62.66;101195.97;7390016;19;20045;-58
2024/01/24 11:17:05;;;;;;;23.70;4.40;;;;;;;11.22;63.05;101198.53;7389807;19;20018;-57
2024/01/24 11:19:38;;;;;;;23.30;4.78;;;;;;;11.26;63.20;101233.66;7390937;19;20017;-59
2024/01/24 11:22:11;;;;;;;21.30;4.20;;;;;;;11.20;63.27;101198.63;7390651;19;20031;-59
2024/01/24 11:24:55;;;;;;;19.92;4.45;;;;;;;11.18;63.60;101237.66;7390072;19;20056;-59
2024/01/24 11:27:36;;;;;;;23.70;4.45;;;;;;;11.23;63.00;101235.53;7390943;19;20022;-61
2024/01/24 11:30:22;;;;;;;22.63;4.50;;;;;;;11.28;63.28;101229.91;7387932;19;20025;-58
2024/01/24 11:32:55;;;;;;;21.85;4.00;;;;;;;11.18;63.66;101228.84;7390822;19;20023;-57
2024/01/24 11:35:38;;;;;;;18.42;4.30;;;;;;;11.21;62.98;101257.78;7389807;19;20018;-60
2024/01/24 11:38:17;;;;;;;25.13;4.57;;;;;;;11.28;62.72;101237.03;7389838;19;20015;-58